Time;durP1;ratioP1;P1;durP2;ratioP2;P2;SDS_P1;SDS_P2;PMS_P1;PMS_P2;Temp;Humidity;BMP_temperature;BMP_pressure;BME280_temperature;BME280_humidity;BME280_pressure;Samples;Min_cycle;Max_cycle;Signal;HPM_P1;HPM_P2
2022/12/31 00:01:44;;;;;;;20.50;4.10;;;11.20;99.90;;;;;;4975208;28;20524;-57
2022/12/31 00:04:10;;;;;;;17.38;3.95;;;11.20;99.90;;;;;;4974241;28;20072;-58
2022/12/31 00:06:36;;;;;;;23.27;3.70;;;11.20;99.90;;;;;;4979358;28;20046;-59
2022/12/31 00:09:04;;;;;;;23.20;3.70;;;11.20;99.90;;;;;;4975863;28;20226;-57
2022/12/31 00:11:31;;;;;;;21.45;3.88;;;11.20;99.90;;;;;;4961096;28;20038;-57
2022/12/31 00:13:58;;;;;;;19.02;3.33;;;11.20;99.90;;;;;;4977122;28;20370;-59
2022/12/31 00:16:35;;;;;;;20.75;3.72;;;11.20;99.90;;;;;;4957155;28;21469;-57
2022/12/31 00:19:02;;;;;;;16.80;3.63;;;11.10;99.90;;;;;;4975190;28;20603;-57
2022/12/31 00:21:32;;;;;;;20.05;3.90;;;11.20;99.90;;;;;;4980935;28;20049;-56
2022/12/31 00:23:58;;;;;;;19.60;3.97;;;11.10;99.90;;;;;;4995175;28;20037;-59
2022/12/31 00:26:29;;;;;;;27.83;5.05;;;11.10;99.90;;;;;;4963940;28;20047;-58
2022/12/31 00:28:56;;;;;;;20.83;3.78;;;11.20;99.90;;;;;;4981908;28;20049;-58
2022/12/31 00:31:27;;;;;;;21.88;3.80;;;11.20;99.90;;;;;;4982752;28;20041;-58
2022/12/31 00:33:54;;;;;;;23.65;3.88;;;11.10;99.90;;;;;;4995081;28;20050;-58
2022/12/31 00:36:25;;;;;;;21.92;3.95;;;11.20;99.90;;;;;;4985767;28;20434;-58
2022/12/31 00:38:53;;;;;;;17.42;4.22;;;11.10;99.90;;;;;;4998535;28;21594;-57
2022/12/31 00:41:20;;;;;;;20.95;3.92;;;11.20;99.90;;;;;;4969843;28;20053;-58
2022/12/31 00:43:46;;;;;;;21.20;4.28;;;11.20;99.90;;;;;;4982592;28;20125;-58
2022/12/31 00:46:16;;;;;;;24.35;4.30;;;11.20;99.90;;;;;;4965844;28;20125;-59
2022/12/31 00:48:42;;;;;;;19.17;3.67;;;11.20;99.90;;;;;;4982633;28;20076;-57
2022/12/31 00:51:18;;;;;;;29.48;4.90;;;11.20;99.90;;;;;;4982606;28;20096;-58
2022/12/31 00:53:44;;;;;;;29.15;4.85;;;11.20;99.90;;;;;;4985395;28;20042;-58
2022/12/31 00:56:16;;;;;;;32.47;4.40;;;11.20;99.90;;;;;;4991042;28;20045;-58
2022/12/31 00:58:42;;;;;;;24.83;4.90;;;11.30;99.90;;;;;;4974126;28;20050;-57
2022/12/31 01:01:10;;;;;;;23.42;4.55;;;11.30;99.90;;;;;;4977677;28;21332;-57
2022/12/31 01:03:35;;;;;;;28.17;5.32;;;11.30;99.90;;;;;;4989643;28;20042;-57
2022/12/31 01:06:01;;;;;;;26.90;4.85;;;11.40;99.90;;;;;;4984838;28;20042;-56
2022/12/31 01:08:27;;;;;;;22.75;4.82;;;11.30;99.90;;;;;;4985785;28;20168;-58
2022/12/31 01:13:40;;;;;;;25.73;4.72;;;11.30;99.90;;;;;;4973065;28;20143;-58
2022/12/31 01:16:08;;;;;;;26.33;5.30;;;11.30;99.90;;;;;;4982518;28;20054;-57
2022/12/31 01:18:33;;;;;;;23.20;4.47;;;11.30;99.90;;;;;;4970650;28;20049;-58
2022/12/31 01:21:02;;;;;;;29.80;5.30;;;11.30;99.90;;;;;;4974540;28;20041;-57
2022/12/31 01:23:28;;;;;;;22.25;5.13;;;11.30;99.90;;;;;;4980366;28;20305;-57
2022/12/31 01:25:53;;;;;;;20.45;4.13;;;11.30;99.90;;;;;;4994526;28;20250;-57
2022/12/31 01:28:19;;;;;;;21.30;5.38;;;11.30;99.90;;;;;;4989011;28;20041;-57
2022/12/31 01:30:45;;;;;;;16.35;3.88;;;11.30;99.90;;;;;;4994709;28;20124;-57
2022/12/31 01:33:11;;;;;;;21.35;3.78;;;11.30;99.90;;;;;;5011670;28;20048;-57
2022/12/31 01:35:40;;;;;;;27.92;4.50;;;11.30;99.90;;;;;;4980995;28;20092;-57
2022/12/31 01:38:09;;;;;;;23.77;5.20;;;11.30;99.90;;;;;;4956751;28;20057;-58
2022/12/31 01:40:39;;;;;;;26.40;4.88;;;11.20;99.90;;;;;;4945948;28;21022;-58
2022/12/31 01:43:17;;;;;;;24.90;5.03;;;11.20;99.90;;;;;;4976660;28;20053;-56
2022/12/31 01:45:46;;;;;;;27.05;5.03;;;11.20;99.90;;;;;;4984452;28;20045;-56
2022/12/31 01:48:14;;;;;;;22.48;5.35;;;11.20;99.90;;;;;;5001778;28;20045;-58
2022/12/31 01:50:45;;;;;;;24.83;5.13;;;11.20;99.90;;;;;;4976697;28;20049;-57
2022/12/31 01:53:11;;;;;;;19.25;3.92;;;11.20;99.90;;;;;;4977093;28;20828;-57
2022/12/31 01:55:57;;;;;;;18.75;4.70;;;11.20;99.90;;;;;;4983493;28;20045;-54
2022/12/31 01:58:41;;;;;;;26.50;4.97;;;11.10;99.90;;;;;;4977594;28;20188;-58
2022/12/31 02:01:08;;;;;;;19.30;4.10;;;11.10;99.90;;;;;;4984954;28;20527;-57
2022/12/31 02:03:35;;;;;;;20.13;4.38;;;11.10;99.90;;;;;;4998416;28;20466;-57
2022/12/31 02:06:04;;;;;;;21.27;5.65;;;11.00;99.90;;;;;;4965212;28;20453;-57
2022/12/31 02:08:32;;;;;;;17.48;4.10;;;11.00;99.90;;;;;;4969649;28;20049;-58
2022/12/31 02:11:01;;;;;;;16.92;3.70;;;11.00;99.90;;;;;;4980258;28;20041;-58
2022/12/31 02:13:27;;;;;;;21.83;4.03;;;10.90;99.90;;;;;;4963707;28;20416;-58
2022/12/31 02:16:01;;;;;;;15.35;4.28;;;10.90;99.90;;;;;;4987652;28;20050;-57
2022/12/31 02:18:47;;;;;;;15.82;4.60;;;10.90;99.90;;;;;;4982465;28;20496;-57
2022/12/31 02:21:30;;;;;;;16.92;4.22;;;10.90;99.90;;;;;;4984321;28;20509;-56
2022/12/31 02:24:26;;;;;;;19.05;4.25;;;10.90;99.90;;;;;;4977797;28;20066;-56
2022/12/31 02:27:48;;;;;;;19.25;4.20;;;10.90;99.90;;;;;;4974634;28;21257;-56
2022/12/31 02:30:21;;;;;;;13.32;3.72;;;10.90;99.90;;;;;;4906219;28;20387;-57
2022/12/31 02:33:06;;;;;;;11.98;4.28;;;10.90;99.90;;;;;;4979295;28;20072;-56
2022/12/31 02:35:36;;;;;;;;;;;10.90;99.90;;;;;;4947525;28;20072;-57
2022/12/31 02:38:09;;;;;;;14.98;4.00;;;10.80;99.90;;;;;;5002866;28;19918;-58
2022/12/31 02:40:37;;;;;;;15.68;3.85;;;10.80;99.90;;;;;;4974496;28;20049;-56
2022/12/31 02:43:03;;;;;;;19.30;4.45;;;10.80;99.90;;;;;;4977352;28;20038;-58
2022/12/31 02:45:47;;;;;;;15.27;4.20;;;10.80;99.90;;;;;;4975406;28;20048;-57
2022/12/31 02:48:12;;;;;;;;;;;10.80;99.90;;;;;;4979514;28;20045;-57
2022/12/31 02:51:07;;;;;;;19.25;4.50;;;10.90;99.90;;;;;;4970565;28;19925;-57
2022/12/31 02:53:51;;;;;;;;;;;10.80;99.90;;;;;;4962664;28;20050;-58
2022/12/31 02:56:55;;;;;;;9.93;3.85;;;10.70;99.90;;;;;;5000241;28;19925;-58
2022/12/31 03:02:40;;;;;;;12.43;4.90;;;10.70;99.90;;;;;;4912591;29;20510;-58
2022/12/31 03:05:11;;;;;;;13.02;4.55;;;10.60;99.90;;;;;;4932546;28;20065;-58
2022/12/31 03:07:39;;;;;;;13.93;4.88;;;10.60;99.90;;;;;;4927625;28;20057;-58
2022/12/31 03:10:06;;;;;;;13.65;4.60;;;10.60;99.90;;;;;;4970066;28;20052;-58
2022/12/31 03:12:45;;;;;;;17.02;5.05;;;10.60;99.90;;;;;;4969454;28;20049;-57
2022/12/31 03:15:19;;;;;;;11.45;4.25;;;10.60;99.90;;;;;;4969656;28;20073;-57
2022/12/31 03:18:07;;;;;;;13.18;3.97;;;10.60;99.90;;;;;;4970803;28;20037;-55
2022/12/31 03:23:42;;;;;;;15.68;4.47;;;10.50;99.90;;;;;;4997565;28;20049;-57
2022/12/31 03:26:11;;;;;;;12.25;3.60;;;10.50;99.90;;;;;;4989195;28;20047;-56
2022/12/31 03:28:40;;;;;;;9.90;3.60;;;10.50;99.90;;;;;;4950175;28;20034;-56
2022/12/31 03:31:06;;;;;;;15.05;4.05;;;10.50;99.90;;;;;;4973595;28;20065;-57
2022/12/31 03:33:35;;;;;;;12.27;3.75;;;10.50;99.90;;;;;;4955304;28;20077;-58
2022/12/31 03:36:05;;;;;;;16.67;4.47;;;10.50;99.90;;;;;;4985921;28;20066;-57
2022/12/31 03:38:31;;;;;;;9.73;3.00;;;10.50;99.90;;;;;;5001839;28;20412;-58
2022/12/31 03:40:57;;;;;;;15.10;4.03;;;10.50;99.90;;;;;;4970115;28;20050;-57
2022/12/31 03:43:22;;;;;;;8.48;2.92;;;10.40;99.90;;;;;;4967880;28;20077;-57
2022/12/31 03:45:50;;;;;;;11.77;3.13;;;10.40;99.90;;;;;;4962621;28;20259;-59
2022/12/31 03:48:16;;;;;;;11.00;3.10;;;10.50;99.90;;;;;;4951554;28;20050;-57
2022/12/31 03:50:42;;;;;;;17.60;3.08;;;10.40;99.90;;;;;;4974852;28;20481;-57
2022/12/31 03:53:09;;;;;;;9.02;2.55;;;10.40;99.90;;;;;;4985105;28;20038;-58
2022/12/31 03:55:35;;;;;;;8.35;2.10;;;10.40;99.90;;;;;;4986317;28;20042;-57
2022/12/31 03:58:01;;;;;;;10.48;2.72;;;10.40;99.90;;;;;;4981249;28;21321;-58
2022/12/31 04:00:27;;;;;;;8.73;2.25;;;10.40;99.90;;;;;;4979736;28;20054;-57
2022/12/31 04:02:53;;;;;;;10.20;2.10;;;10.40;99.90;;;;;;4977307;28;20060;-56
2022/12/31 04:05:22;;;;;;;9.70;2.20;;;10.40;99.90;;;;;;4982848;28;20041;-54
2022/12/31 04:07:50;;;;;;;10.30;2.15;;;10.40;99.90;;;;;;4974750;28;20203;-56
2022/12/31 04:10:17;;;;;;;9.65;2.10;;;10.40;99.90;;;;;;4956894;28;20060;-55
2022/12/31 04:12:43;;;;;;;8.90;2.03;;;10.40;99.90;;;;;;4986327;28;20517;-56
2022/12/31 04:15:14;;;;;;;14.25;2.15;;;10.30;99.90;;;;;;4989152;28;20049;-56
2022/12/31 04:17:43;;;;;;;11.02;2.00;;;10.40;99.90;;;;;;4993563;28;20053;-57
2022/12/31 04:20:10;;;;;;;8.73;2.03;;;10.30;99.90;;;;;;4999437;28;20229;-57
2022/12/31 04:22:36;;;;;;;10.25;1.90;;;10.30;99.90;;;;;;4969000;28;20089;-55
2022/12/31 04:25:02;;;;;;;5.97;1.85;;;10.30;99.90;;;;;;4982969;28;20050;-57
2022/12/31 04:27:28;;;;;;;8.15;1.63;;;10.40;99.90;;;;;;4967029;28;20041;-56
2022/12/31 04:29:53;;;;;;;7.18;1.70;;;10.30;99.90;;;;;;4984937;28;20085;-57
2022/12/31 04:32:19;;;;;;;12.05;2.25;;;10.30;99.90;;;;;;4981954;28;20088;-57
2022/12/31 04:34:45;;;;;;;12.38;2.20;;;10.30;99.90;;;;;;4983063;28;20046;-56
2022/12/31 04:37:11;;;;;;;8.98;2.70;;;10.30;99.90;;;;;;5020660;28;20056;-56
2022/12/31 04:39:36;;;;;;;12.20;1.95;;;10.30;99.90;;;;;;5014337;28;20034;-56
2022/12/31 04:42:05;;;;;;;10.43;1.98;;;10.30;99.90;;;;;;4983119;28;20045;-57
2022/12/31 04:44:33;;;;;;;11.48;2.50;;;10.30;99.90;;;;;;4995234;28;20241;-57
2022/12/31 04:46:59;;;;;;;14.10;2.53;;;10.30;99.90;;;;;;5012174;28;20060;-58
2022/12/31 04:49:28;;;;;;;10.07;2.72;;;10.30;99.90;;;;;;4981547;28;20042;-57
2022/12/31 04:51:53;;;;;;;13.18;2.60;;;10.30;99.90;;;;;;4988772;28;20069;-58
2022/12/31 04:54:19;;;;;;;13.10;3.33;;;10.30;99.90;;;;;;4976388;28;20536;-56
2022/12/31 04:56:45;;;;;;;13.38;2.63;;;10.30;99.90;;;;;;4984316;28;20070;-58
2022/12/31 04:59:11;;;;;;;12.05;2.95;;;10.30;99.90;;;;;;4962911;28;20045;-56
2022/12/31 05:01:38;;;;;;;16.33;3.65;;;10.30;99.90;;;;;;4984953;28;20065;-57
2022/12/31 05:04:04;;;;;;;9.75;3.53;;;10.30;99.90;;;;;;4988545;22;20065;-58
2022/12/31 05:06:30;;;;;;;10.18;3.13;;;10.30;99.90;;;;;;4997640;28;20038;-56
2022/12/31 05:08:56;;;;;;;12.88;3.40;;;10.40;99.90;;;;;;4996714;28;20048;-60
2022/12/31 05:11:21;;;;;;;13.43;4.10;;;10.40;99.90;;;;;;4992121;28;20056;-58
2022/12/31 05:13:47;;;;;;;18.13;4.75;;;10.30;99.90;;;;;;4997272;28;20048;-58
2022/12/31 05:16:13;;;;;;;17.98;5.68;;;10.40;99.90;;;;;;4974674;28;20124;-57
2022/12/31 05:18:39;;;;;;;13.63;5.55;;;10.40;99.90;;;;;;4982483;28;20041;-57
2022/12/31 05:21:05;;;;;;;17.50;6.65;;;10.40;99.90;;;;;;4997556;28;20136;-58
2022/12/31 05:23:31;;;;;;;16.58;6.82;;;10.40;99.90;;;;;;4981546;28;20046;-58
2022/12/31 05:25:58;;;;;;;16.35;6.78;;;10.40;99.90;;;;;;4982487;28;20029;-58
2022/12/31 05:28:24;;;;;;;14.18;6.78;;;10.40;99.90;;;;;;4975698;28;20149;-57
2022/12/31 05:30:50;;;;;;;14.25;7.75;;;10.40;99.90;;;;;;4999808;28;20663;-58
2022/12/31 05:33:21;;;;;;;15.60;7.70;;;10.40;99.90;;;;;;5005258;28;20833;-58
2022/12/31 05:35:47;;;;;;;14.35;6.25;;;10.40;99.90;;;;;;4985866;28;20065;-57
2022/12/31 05:38:13;;;;;;;17.35;6.45;;;10.50;99.90;;;;;;4995307;28;20068;-58
2022/12/31 05:40:39;;;;;;;10.88;5.88;;;10.40;99.90;;;;;;4998740;28;20041;-57
2022/12/31 05:43:05;;;;;;;13.15;5.75;;;10.40;99.90;;;;;;5000846;28;20042;-57
2022/12/31 05:45:30;;;;;;;9.20;5.25;;;10.40;99.90;;;;;;4998685;28;20070;-58
2022/12/31 05:47:56;;;;;;;8.43;4.68;;;10.50;99.90;;;;;;4967601;28;20084;-57
2022/12/31 05:50:22;;;;;;;11.38;5.00;;;10.40;99.90;;;;;;4980965;28;20488;-57
2022/12/31 05:52:51;;;;;;;14.20;4.85;;;10.40;99.90;;;;;;4998662;28;20045;-58
2022/12/31 05:55:16;;;;;;;13.48;5.03;;;10.50;99.90;;;;;;5001668;28;20493;-57
2022/12/31 05:57:42;;;;;;;11.88;5.72;;;10.50;99.90;;;;;;4980913;28;20179;-58
2022/12/31 06:00:09;;;;;;;10.70;6.10;;;10.50;99.90;;;;;;4982450;28;20119;-56
2022/12/31 06:02:34;;;;;;;12.77;5.75;;;10.50;99.90;;;;;;4996620;28;20163;-58
2022/12/31 06:05:00;;;;;;;13.07;6.00;;;10.50;99.90;;;;;;4995350;28;20611;-57
2022/12/31 06:07:26;;;;;;;12.13;6.13;;;10.50;99.90;;;;;;4998990;28;20049;-58
2022/12/31 06:09:52;;;;;;;11.63;6.15;;;10.50;99.90;;;;;;4975251;28;20065;-58
2022/12/31 06:12:17;;;;;;;9.30;5.80;;;10.50;99.90;;;;;;4971166;28;20181;-58
2022/12/31 06:14:43;;;;;;;13.05;6.13;;;10.50;99.90;;;;;;4964459;28;20053;-58
2022/12/31 06:17:09;;;;;;;15.00;7.57;;;10.50;99.90;;;;;;4991854;28;20717;-58
2022/12/31 06:19:35;;;;;;;12.60;7.50;;;10.50;99.90;;;;;;4968590;28;20041;-58
2022/12/31 06:22:00;;;;;;;9.85;6.55;;;10.50;99.90;;;;;;4982259;28;20042;-58
2022/12/31 06:24:26;;;;;;;12.15;6.75;;;10.50;99.90;;;;;;4980048;28;20048;-58
2022/12/31 06:26:55;;;;;;;9.85;6.15;;;10.50;99.90;;;;;;4977225;28;20041;-58
2022/12/31 06:29:20;;;;;;;12.20;7.40;;;10.50;99.90;;;;;;4946968;28;20049;-58
2022/12/31 06:31:46;;;;;;;12.45;6.97;;;10.50;99.90;;;;;;4980123;28;20045;-57
2022/12/31 06:34:12;;;;;;;13.57;6.65;;;10.50;99.90;;;;;;4966943;28;20111;-58
2022/12/31 06:36:38;;;;;;;10.20;6.18;;;10.50;99.90;;;;;;4962743;28;20052;-58
2022/12/31 06:39:04;;;;;;;9.13;5.60;;;10.50;99.90;;;;;;4962689;28;20543;-58
2022/12/31 06:41:30;;;;;;;9.80;4.97;;;10.40;99.90;;;;;;4962926;28;21618;-58
2022/12/31 06:43:56;;;;;;;13.82;5.40;;;10.40;99.90;;;;;;4996720;28;20034;-58
2022/12/31 06:46:21;;;;;;;12.20;4.82;;;10.40;99.90;;;;;;4978407;28;20631;-58
2022/12/31 06:48:47;;;;;;;8.82;5.43;;;10.30;99.90;;;;;;4978277;28;20386;-57
2022/12/31 06:51:16;;;;;;;9.60;6.07;;;10.40;99.90;;;;;;4995035;28;20565;-58
2022/12/31 06:53:42;;;;;;;8.93;6.63;;;10.40;99.90;;;;;;4982224;28;20045;-58
2022/12/31 06:56:14;;;;;;;9.98;6.53;;;10.30;99.90;;;;;;4991583;28;20041;-58
2022/12/31 06:58:40;;;;;;;13.57;7.20;;;10.30;99.90;;;;;;4992783;28;20140;-58
2022/12/31 07:01:25;;;;;;;10.07;7.35;;;10.30;99.90;;;;;;4977723;28;20560;-58
2022/12/31 07:04:12;;;;;;;10.00;7.22;;;10.10;99.90;;;;;;4989789;28;20463;-58
2022/12/31 07:06:50;;;;;;;13.10;7.18;;;10.30;99.90;;;;;;4990896;28;20095;-58
2022/12/31 07:09:52;;;;;;;11.48;7.07;;;10.30;99.90;;;;;;4951717;28;20462;-58
2022/12/31 07:12:32;;;;;;;10.00;6.00;;;10.20;99.90;;;;;;4981540;28;20108;-58
2022/12/31 07:15:05;;;;;;;11.13;6.10;;;10.20;99.90;;;;;;4997557;28;20065;-58
2022/12/31 07:17:45;;;;;;;9.68;6.13;;;10.20;99.90;;;;;;4992037;28;22698;-57
2022/12/31 07:20:17;;;;;;;9.48;6.47;;;10.20;99.90;;;;;;4984638;28;20050;-58
2022/12/31 07:22:44;;;;;;;11.13;6.38;;;10.20;99.90;;;;;;4986133;28;20523;-57
2022/12/31 07:25:15;;;;;;;9.65;6.38;;;10.20;99.90;;;;;;4982144;28;20473;-58
2022/12/31 07:27:47;;;;;;;8.75;5.90;;;10.20;99.90;;;;;;4996171;28;20049;-57
2022/12/31 07:30:46;;;;;;;9.60;6.70;;;10.30;99.90;;;;;;4989670;28;20045;-58
2022/12/31 07:33:17;;;;;;;7.60;5.82;;;10.30;99.90;;;;;;4987089;28;20129;-58
2022/12/31 07:36:04;;;;;;;9.27;6.65;;;10.30;99.90;;;;;;4985467;28;20104;-57
2022/12/31 07:38:39;;;;;;;10.50;6.38;;;10.30;99.90;;;;;;4983428;28;20393;-57
2022/12/31 07:41:35;;;;;;;10.48;6.85;;;10.30;99.90;;;;;;4966995;28;20237;-58
2022/12/31 07:44:20;;;;;;;8.48;6.63;;;10.30;99.90;;;;;;4986771;28;20057;-57
2022/12/31 07:46:56;;;;;;;9.13;5.90;;;10.30;99.90;;;;;;4963797;28;20042;-58
2022/12/31 07:49:23;;;;;;;7.50;6.32;;;10.30;99.90;;;;;;4966097;28;20045;-58
2022/12/31 07:51:49;;;;;;;9.15;7.45;;;10.30;99.90;;;;;;4984994;28;20104;-58
2022/12/31 07:54:15;;;;;;;7.47;6.22;;;10.40;99.90;;;;;;4970118;28;20563;-58
2022/12/31 07:56:42;;;;;;;9.45;6.95;;;10.40;99.90;;;;;;4983772;28;20050;-58
2022/12/31 07:59:23;;;;;;;9.55;6.75;;;10.40;99.90;;;;;;4968543;28;20046;-57
2022/12/31 08:02:13;;;;;;;9.10;6.18;;;10.40;99.90;;;;;;4985124;28;20045;-58
2022/12/31 08:04:54;;;;;;;7.80;5.97;;;10.40;99.90;;;;;;4984183;28;20046;-58
2022/12/31 08:07:57;;;;;;;7.43;6.43;;;10.50;99.90;;;;;;4981403;28;20050;-57
2022/12/31 08:11:03;;;;;;;10.02;7.45;;;10.50;99.90;;;;;;4984964;28;20481;-58
2022/12/31 08:13:30;;;;;;;8.38;6.90;;;10.50;99.90;;;;;;4985245;28;20053;-57
2022/12/31 08:15:56;;;;;;;9.30;7.78;;;10.50;99.90;;;;;;4981398;28;20105;-57
2022/12/31 08:18:22;;;;;;;8.63;7.60;;;10.50;99.90;;;;;;4973020;28;20057;-58
2022/12/31 08:20:59;;;;;;;9.05;7.28;;;10.60;99.90;;;;;;4993101;28;20208;-58
2022/12/31 08:23:44;;;;;;;8.63;6.90;;;10.60;99.90;;;;;;4995436;28;20112;-58
2022/12/31 08:26:24;;;;;;;7.05;6.10;;;10.60;99.90;;;;;;4979819;28;20042;-58
2022/12/31 08:29:17;;;;;;;6.72;5.50;;;10.60;99.90;;;;;;4990047;28;20493;-57
2022/12/31 08:32:03;;;;;;;5.93;5.30;;;10.70;99.90;;;;;;4997842;28;20038;-58
2022/12/31 08:34:29;;;;;;;6.88;5.43;;;10.80;99.90;;;;;;5000439;28;20058;-58
2022/12/31 08:37:19;;;;;;;5.97;5.38;;;10.80;99.90;;;;;;5000559;28;20140;-58
2022/12/31 08:39:57;;;;;;;6.75;5.50;;;10.90;99.90;;;;;;4998041;28;20057;-58
2022/12/31 08:42:34;;;;;;;6.25;5.57;;;10.90;99.90;;;;;;4997987;28;20078;-58
2022/12/31 08:45:37;;;;;;;6.90;5.57;;;11.00;99.90;;;;;;5000163;28;20053;-57
2022/12/31 08:48:21;;;;;;;7.10;5.88;;;11.10;99.90;;;;;;4984318;28;20039;-58
2022/12/31 08:50:47;;;;;;;;;;;11.10;99.90;;;;;;4999706;28;20528;-57
2022/12/31 08:53:13;;;;;;;8.80;6.88;;;11.20;99.90;;;;;;5000093;28;19921;-58
2022/12/31 08:55:45;;;;;;;10.15;7.35;;;11.20;99.90;;;;;;5002523;28;20046;-57
2022/12/31 08:58:24;;;;;;;9.57;7.25;;;11.40;99.90;;;;;;4993317;28;20560;-58
2022/12/31 09:00:55;;;;;;;130.57;116.22;;;11.50;99.90;;;;;;4996866;28;20493;-57
2022/12/31 09:03:59;;;;;;;12.02;8.07;;;11.50;99.90;;;;;;5002704;28;20045;-58
2022/12/31 09:06:32;;;;;;;9.15;6.45;;;11.60;99.90;;;;;;4993730;28;20040;-58
2022/12/31 09:09:01;;;;;;;9.60;5.95;;;11.70;99.90;;;;;;4992490;28;20455;-58
2022/12/31 09:11:39;;;;;;;13.23;6.70;;;11.70;99.90;;;;;;4987313;28;20037;-58
2022/12/31 09:14:23;;;;;;;10.82;5.10;;;11.80;99.90;;;;;;4972836;28;20049;-57
2022/12/31 09:17:02;;;;;;;9.38;4.50;;;11.80;99.90;;;;;;5001832;28;20081;-58
2022/12/31 09:19:27;;;;;;;8.43;3.60;;;11.80;99.90;;;;;;5001954;28;20061;-59
2022/12/31 09:21:53;;;;;;;8.73;3.40;;;11.80;99.90;;;;;;4970110;28;20124;-58
2022/12/31 09:24:22;;;;;;;7.28;3.35;;;11.90;99.90;;;;;;4983262;28;20038;-59
2022/12/31 09:27:20;;;;;;;9.98;3.70;;;11.90;99.90;;;;;;4987839;28;20459;-59
2022/12/31 09:30:16;;;;;;;8.52;2.97;;;11.90;99.90;;;;;;4981601;28;20061;-58
2022/12/31 09:32:48;;;;;;;7.43;3.45;;;11.90;99.90;;;;;;4998350;28;20092;-58
2022/12/31 09:35:46;;;;;;;6.93;3.60;;;11.90;99.90;;;;;;5000215;28;20473;-57
2022/12/31 09:38:29;;;;;;;7.10;2.30;;;11.90;99.90;;;;;;4998751;28;20046;-59
2022/12/31 09:41:22;;;;;;;5.90;2.20;;;12.00;99.90;;;;;;5002631;28;20037;-58
2022/12/31 09:44:19;;;;;;;8.30;2.70;;;12.00;99.90;;;;;;5002141;28;20512;-58
2022/12/31 09:47:14;;;;;;;5.75;1.98;;;12.00;99.90;;;;;;5004265;28;20053;-57
2022/12/31 09:49:48;;;;;;;5.30;2.00;;;12.00;99.90;;;;;;4992675;28;20505;-58
2022/12/31 09:52:40;;;;;;;4.75;1.80;;;12.00;99.90;;;;;;4997237;28;20045;-58
2022/12/31 09:55:06;;;;;;;5.85;1.70;;;12.10;99.90;;;;;;4983805;28;20073;-59
2022/12/31 09:58:06;;;;;;;13.95;7.05;;;12.00;99.90;;;;;;4994718;28;20549;-58
2022/12/31 10:00:52;;;;;;;7.35;1.75;;;12.10;99.90;;;;;;4948075;28;20113;-58
2022/12/31 10:03:39;;;;;;;6.55;2.03;;;12.10;99.90;;;;;;4955195;28;20072;-59
2022/12/31 10:06:25;;;;;;;4.10;1.20;;;12.10;99.90;;;;;;4989176;28;20626;-58
2022/12/31 10:09:15;;;;;;;8.30;2.05;;;12.10;99.90;;;;;;4998091;28;20045;-58
2022/12/31 10:12:17;;;;;;;9.50;1.90;;;12.10;99.90;;;;;;5000091;28;20061;-57
2022/12/31 10:15:13;;;;;;;6.07;1.65;;;12.10;99.90;;;;;;5000884;28;20169;-57
2022/12/31 10:18:05;;;;;;;7.28;1.55;;;12.20;99.90;;;;;;4988889;28;20136;-58
2022/12/31 10:20:37;;;;;;;16.38;2.17;;;12.20;99.90;;;;;;4973400;28;20038;-58
2022/12/31 10:23:23;;;;;;;12.57;1.90;;;12.30;99.90;;;;;;4983880;28;20046;-58
2022/12/31 10:26:04;;;;;;;17.20;2.30;;;12.30;99.90;;;;;;4963407;28;20127;-58
2022/12/31 10:28:52;;;;;;;15.70;2.60;;;12.40;99.90;;;;;;4970155;28;20596;-58
2022/12/31 10:31:45;;;;;;;17.70;2.58;;;12.50;99.90;;;;;;4966593;28;20617;-58
2022/12/31 10:34:34;;;;;;;15.80;3.40;;;12.50;99.90;;;;;;4967428;28;20117;-58
2022/12/31 10:37:05;;;;;;;16.83;2.70;;;12.60;99.90;;;;;;4985536;28;20469;-58
2022/12/31 10:39:33;;;;;;;11.43;2.40;;;12.60;99.90;;;;;;4995064;28;20049;-58
2022/12/31 10:42:34;;;;;;;19.38;3.42;;;12.70;99.90;;;;;;4999407;28;20038;-58
2022/12/31 10:45:26;;;;;;;13.95;2.22;;;12.70;99.90;;;;;;4998203;28;20050;-58
2022/12/31 10:48:07;;;;;;;18.42;3.75;;;12.80;99.90;;;;;;4982393;28;20049;-58
2022/12/31 10:51:00;;;;;;;11.30;2.30;;;12.80;99.90;;;;;;4997179;28;20489;-58
2022/12/31 10:53:48;;;;;;;17.70;3.30;;;12.90;99.90;;;;;;4981337;28;20046;-58
2022/12/31 10:56:31;;;;;;;14.90;2.88;;;12.90;99.90;;;;;;4976643;28;20133;-58
2022/12/31 10:59:15;;;;;;;11.88;2.70;;;13.00;99.90;;;;;;4981703;28;20045;-58
2022/12/31 11:01:43;;;;;;;18.03;3.70;;;13.00;99.90;;;;;;4989236;28;20129;-58
2022/12/31 11:04:37;;;;;;;24.48;3.47;;;13.00;99.90;;;;;;5018604;23;20051;-58
2022/12/31 11:07:42;;;;;;;15.93;3.08;;;13.00;99.90;;;;;;5034817;28;20502;-60
2022/12/31 11:10:38;;;;;;;16.38;3.72;;;12.90;99.90;;;;;;5043980;28;20403;-60
2022/12/31 11:13:10;;;;;;;24.23;4.65;;;13.00;99.90;;;;;;5023878;28;20041;-59
2022/12/31 11:16:10;;;;;;;24.80;4.35;;;13.00;99.90;;;;;;5015547;28;20113;-59
2022/12/31 11:18:56;;;;;;;15.68;4.25;;;13.00;99.90;;;;;;5031494;28;20033;-59
2022/12/31 11:21:57;;;;;;;22.33;3.67;;;13.00;99.90;;;;;;5016470;28;20041;-59
2022/12/31 11:25:01;;;;;;;19.98;3.55;;;13.00;99.90;;;;;;4973214;28;20076;-59
2022/12/31 11:27:41;;;;;;;28.27;8.90;;;13.10;99.90;;;;;;5002394;28;20519;-59
2022/12/31 11:30:39;;;;;;;14.30;2.90;;;13.00;99.90;;;;;;5004285;28;20048;-59
2022/12/31 11:33:22;;;;;;;15.07;3.53;;;13.10;99.90;;;;;;5030639;28;20060;-59
2022/12/31 11:36:10;;;;;;;17.48;3.58;;;13.10;99.90;;;;;;5026716;28;20045;-59
2022/12/31 11:38:51;;;;;;;16.30;3.10;;;13.10;99.90;;;;;;4994727;28;20102;-59
2022/12/31 11:41:45;;;;;;;17.63;4.03;;;13.20;99.90;;;;;;5010453;28;20038;-59
2022/12/31 11:44:22;;;;;;;13.05;2.88;;;13.20;99.90;;;;;;5026071;28;20116;-59
2022/12/31 11:47:24;;;;;;;17.25;3.40;;;13.20;99.90;;;;;;5029603;28;21093;-60
2022/12/31 11:50:02;;;;;;;20.65;3.40;;;13.20;99.90;;;;;;5013986;28;20399;-59
2022/12/31 11:52:52;;;;;;;14.65;2.83;;;13.20;99.90;;;;;;5026129;28;20051;-59
2022/12/31 11:55:55;;;;;;;13.23;3.00;;;13.20;99.90;;;;;;5014388;28;20037;-59
2022/12/31 11:58:27;;;;;;;11.90;2.40;;;13.30;99.90;;;;;;5029725;28;20100;-60
2022/12/31 12:01:16;;;;;;;16.85;3.17;;;13.30;99.90;;;;;;5006444;28;20044;-60
2022/12/31 12:03:42;;;;;;;16.40;3.05;;;13.30;99.90;;;;;;5014253;28;20298;-58
2022/12/31 12:06:14;;;;;;;13.48;2.85;;;13.30;99.90;;;;;;5010696;28;20053;-59
2022/12/31 12:08:44;;;;;;;12.90;4.15;;;13.30;99.90;;;;;;5015145;28;20053;-58
2022/12/31 12:11:31;;;;;;;13.82;2.67;;;13.30;99.90;;;;;;5020941;28;20044;-60
2022/12/31 12:13:57;;;;;;;13.25;2.55;;;13.30;99.90;;;;;;5005209;28;20128;-59
2022/12/31 12:16:25;;;;;;;16.13;2.88;;;13.30;99.90;;;;;;5015887;28;20128;-59
2022/12/31 12:19:19;;;;;;;12.85;3.15;;;13.30;99.90;;;;;;5036859;28;20565;-60
2022/12/31 12:21:46;;;;;;;17.92;3.75;;;13.20;99.90;;;;;;5015676;28;20231;-60
2022/12/31 12:24:28;;;;;;;19.98;4.05;;;13.20;99.90;;;;;;5024162;28;20518;-60
2022/12/31 12:26:56;;;;;;;14.40;3.45;;;13.20;99.90;;;;;;5010018;28;20315;-60
2022/12/31 12:29:26;;;;;;;16.15;3.80;;;13.10;99.90;;;;;;5031492;28;20488;-60
2022/12/31 12:32:01;;;;;;;18.27;3.80;;;13.10;99.90;;;;;;5023081;28;20044;-60
2022/12/31 12:34:38;;;;;;;21.95;3.47;;;13.10;99.90;;;;;;5030169;28;20412;-61
2022/12/31 12:37:20;;;;;;;16.05;3.10;;;13.10;99.90;;;;;;5018715;28;20056;-60
2022/12/31 12:39:59;;;;;;;21.25;3.78;;;13.10;99.90;;;;;;5012813;28;20094;-60
2022/12/31 12:42:25;;;;;;;18.02;3.47;;;13.10;99.90;;;;;;5032680;28;20112;-60
2022/12/31 12:45:13;;;;;;;20.27;5.63;;;13.10;99.90;;;;;;5022471;28;21104;-60
2022/12/31 12:47:41;;;;;;;21.10;4.32;;;13.10;99.90;;;;;;5016376;28;20120;-60
2022/12/31 12:50:19;;;;;;;27.80;9.50;;;13.00;99.90;;;;;;5012374;28;20408;-60
2022/12/31 12:53:09;;;;;;;17.45;3.88;;;13.10;99.90;;;;;;5020045;28;20452;-60
2022/12/31 12:56:02;;;;;;;21.52;6.53;;;13.10;99.90;;;;;;5020509;28;20083;-60
2022/12/31 12:58:37;;;;;;;18.25;4.50;;;13.10;99.90;;;;;;5006447;28;20107;-60
2022/12/31 13:01:14;;;;;;;16.63;4.45;;;13.00;99.90;;;;;;5031538;28;20044;-59
2022/12/31 13:03:46;;;;;;;17.70;4.13;;;13.00;99.90;;;;;;5014773;28;20044;-59
2022/12/31 13:06:35;;;;;;;25.05;8.80;;;13.00;99.90;;;;;;5018035;28;20562;-59
2022/12/31 13:09:48;;;;;;;18.17;5.63;;;13.10;99.90;;;;;;5020420;28;20458;-59
2022/12/31 13:12:31;;;;;;;25.38;5.13;;;13.00;99.90;;;;;;4992623;28;20038;-60
2022/12/31 13:15:09;;;;;;;18.15;4.78;;;13.00;99.90;;;;;;5024696;28;20512;-59
2022/12/31 13:18:18;;;;;;;13.82;3.15;;;13.00;99.90;;;;;;5018544;28;21756;-60
2022/12/31 13:20:54;;;;;;;19.45;5.25;;;13.00;99.90;;;;;;5025327;28;20106;-59
2022/12/31 13:23:38;;;;;;;17.60;5.05;;;13.00;99.90;;;;;;5018379;28;20107;-59
2022/12/31 13:26:18;;;;;;;20.63;4.82;;;13.00;99.90;;;;;;5017169;28;20055;-59
2022/12/31 13:28:53;;;;;;;22.73;6.55;;;13.00;99.90;;;;;;5028948;28;20033;-60
2022/12/31 13:31:35;;;;;;;19.38;4.63;;;13.00;99.90;;;;;;5011121;28;20062;-59